Altair — HP4625 — position and weather

sailwx.info

Track history (hours):
 
Tides and Currents Weather Stations Pressure Air Temp Water Temp Dewpoint Dewpoint Depression Visibility Wind Speed Wind Dir Waves Ship Positions

Altair

Last reported at 2017-Nov-01 01:58 UTC. Time now 2017-Nov-18 15:50 UTC.
Position N 28°08' W 015°24'.
Warning: this ship's position is 17 days out of date.

Length 91 m; draft 3.8 m.

Type: Cargo ship. MMSI: 352160000.

Date/timePositionNaut miles runAvg speedWind from/ knotsBaromVisibWave heightAir tempDewpointWater temp
2017-Nov-01 01:58N 28°08' W 015°24'0 0.0
2017-Nov-01 01:28N 28°08' W 015°24'0 0.0
2017-Nov-01 00:58N 28°08' W 015°24'0 0.0
2017-Nov-01 00:28N 28°08' W 015°24'0 0.0
2017-Oct-31 23:58N 28°08' W 015°24'0 0.0
2017-Oct-31 23:28N 28°08' W 015°24'0 0.0
2017-Oct-31 22:58N 28°08' W 015°24'0 0.0
2017-Oct-31 22:28N 28°08' W 015°24'0 0.0
2017-Oct-31 21:58N 28°08' W 015°24'0 0.0
2017-Oct-31 21:28N 28°08' W 015°24'0 0.0
2017-Oct-31 20:58N 28°08' W 015°24'0 0.0
2017-Oct-31 20:28N 28°08' W 015°24'0 0.0
2017-Oct-31 19:58N 28°08' W 015°24'0 0.0
2017-Oct-31 19:19N 28°08' W 015°24'0 0.2
2017-Oct-31 18:50N 28°08' W 015°25'2 5.8
2017-Oct-31 18:30N 28°07' W 015°24'4 7.3
2017-Oct-31 18:00N 28°04' W 015°21'4 8.6
2017-Oct-31 17:31N 27°60' W 015°19'4 8.5
2017-Oct-31 17:01N 27°56' W 015°17'4 7.1
2017-Oct-31 16:31N 27°52' W 015°17'4 7.7
2017-Oct-31 16:00N 27°49' W 015°20'  
2017-Oct-28 15:14N 19°54' W 020°60'7 7.7
2017-Oct-28 14:22N 19°48' W 021°03'156 8.1
2017-Oct-27 19:12N 17°36' W 022°32'29 8.1
2017-Oct-27 15:38N 17°12' W 022°48'1 8.4
2017-Oct-27 15:28N 17°11' W 022°49'4 8.3
2017-Oct-27 14:59N 17°07' W 022°51'11 8.1
2017-Oct-27 13:39N 16°58' W 022°58'9 2.5
2017-Oct-27 10:10N 16°51' W 023°02'1 7.3
2017-Oct-27 09:59N 16°49' W 023°01'4 7.2
2017-Oct-27 09:29N 16°46' W 023°01'2 0.2
2017-Oct-26 22:08N 16°45' W 022°59'0 0.0
2017-Oct-26 20:37N 16°45' W 022°59'0 0.0
2017-Oct-26 20:28N 16°45' W 022°59'0 0.0
2017-Oct-26 16:01N 16°45' W 022°59'0 0.1
2017-Oct-26 15:55N 16°45' W 022°59'0 0.0
2017-Oct-26 15:25N 16°45' W 022°59'0 0.0
2017-Oct-26 14:58N 16°45' W 022°59'0 0.5
2017-Oct-26 14:03N 16°45' W 022°59'0 0.2
2017-Oct-26 13:41N 16°45' W 022°59'0 0.0
2017-Oct-26 13:02N 16°45' W 022°59'0 0.3
2017-Oct-26 12:59N 16°45' W 022°59'0 0.0
2017-Oct-26 12:29N 16°45' W 022°59'0 0.0
2017-Oct-26 08:47N 16°45' W 022°59'0 0.0
2017-Oct-26 06:50N 16°45' W 022°59'0 0.0
2017-Oct-26 06:29N 16°45' W 022°59'0 0.0
2017-Oct-26 05:59N 16°45' W 022°59'0 0.0
2017-Oct-26 01:11N 16°45' W 022°59'0 0.0
2017-Oct-26 00:59N 16°45' W 022°59'0 0.0
2017-Oct-26 00:29N 16°45' W 022°59'0 0.0
2017-Oct-25 23:59N 16°45' W 022°59'0 0.0
2017-Oct-25 23:29N 16°45' W 022°59'0 0.0
2017-Oct-25 22:58N 16°45' W 022°59'1 1.8
2017-Oct-25 22:29N 16°45' W 023°00'4 8.1
2017-Oct-25 22:00N 16°45' W 023°04'4 8.5
2017-Oct-25 21:30N 16°45' W 023°09'4 8.8
2017-Oct-25 20:59N 16°46' W 023°13'4 8.5
2017-Oct-25 20:29N 16°47' W 023°18'4 8.3
2017-Oct-25 20:00N 16°48' W 023°22'4 8.0
2017-Oct-25 19:30N 16°48' W 023°26'4 8.1
2017-Oct-25 18:59N 16°48' W 023°31'4 7.9
2017-Oct-25 18:30N 16°49' W 023°35'4 8.0
2017-Oct-25 18:00N 16°49' W 023°39'4 8.0
2017-Oct-25 17:29N 16°50' W 023°43'4 7.9
2017-Oct-25 16:59N 16°50' W 023°47'4 8.1
2017-Oct-25 16:29N 16°51' W 023°51'4 8.1
2017-Oct-25 15:58N 16°51' W 023°56'4 8.3
2017-Oct-25 15:30N 16°52' W 023°60'4 8.3
2017-Oct-25 15:00N 16°52' W 024°04'4 8.1
2017-Oct-25 14:30N 16°53' W 024°08'6 8.0
2017-Oct-25 13:45N 16°53' W 024°14'2 7.7
2017-Oct-25 13:30N 16°53' W 024°16'13 7.9
2017-Oct-25 11:54N 16°54' W 024°29'3 8.0
2017-Oct-25 11:29N 16°55' W 024°33'14 8.3
2017-Oct-25 09:51N 16°57' W 024°47'3 8.2
2017-Oct-25 09:29N 16°58' W 024°50'4 7.9
2017-Oct-25 09:00N 16°58' W 024°54'4 7.1
2017-Oct-25 08:29N 16°58' W 024°58'  
Track history (hours):
 
Tides and Currents Weather Stations Pressure Air Temp Water Temp Dewpoint Dewpoint Depression Visibility Wind Speed Wind Dir Waves Ship Positions

Altair

Last reported at 2017-Nov-01 01:58 UTC. Time now 2017-Nov-18 15:50 UTC.
Position N 28°08' W 015°24'.
Warning: this ship's position is 17 days out of date.

Length 91 m; draft 3.8 m.

Type: Cargo ship. MMSI: 352160000.

Date/timePositionNaut miles runAvg speedWind from/ knotsBaromVisibWave heightAir tempDewpointWater temp
2017-Nov-01 01:58N 28°08' W 015°24'0 0.0
2017-Nov-01 01:28N 28°08' W 015°24'0 0.0
2017-Nov-01 00:58N 28°08' W 015°24'0 0.0
2017-Nov-01 00:28N 28°08' W 015°24'0 0.0
2017-Oct-31 23:58N 28°08' W 015°24'0 0.0
2017-Oct-31 23:28N 28°08' W 015°24'0 0.0
2017-Oct-31 22:58N 28°08' W 015°24'0 0.0
2017-Oct-31 22:28N 28°08' W 015°24'0 0.0
2017-Oct-31 21:58N 28°08' W 015°24'0 0.0
2017-Oct-31 21:28N 28°08' W 015°24'0 0.0
2017-Oct-31 20:58N 28°08' W 015°24'0 0.0
2017-Oct-31 20:28N 28°08' W 015°24'0 0.0
2017-Oct-31 19:58N 28°08' W 015°24'0 0.0
2017-Oct-31 19:19N 28°08' W 015°24'0 0.2
2017-Oct-31 18:50N 28°08' W 015°25'2 5.8
2017-Oct-31 18:30N 28°07' W 015°24'4 7.3
2017-Oct-31 18:00N 28°04' W 015°21'4 8.6
2017-Oct-31 17:31N 27°60' W 015°19'4 8.5
2017-Oct-31 17:01N 27°56' W 015°17'4 7.1
2017-Oct-31 16:31N 27°52' W 015°17'4 7.7
2017-Oct-31 16:00N 27°49' W 015°20'  
2017-Oct-28 15:14N 19°54' W 020°60'7 7.7
2017-Oct-28 14:22N 19°48' W 021°03'156 8.1
2017-Oct-27 19:12N 17°36' W 022°32'29 8.1
2017-Oct-27 15:38N 17°12' W 022°48'1 8.4
2017-Oct-27 15:28N 17°11' W 022°49'4 8.3
2017-Oct-27 14:59N 17°07' W 022°51'11 8.1
2017-Oct-27 13:39N 16°58' W 022°58'9 2.5
2017-Oct-27 10:10N 16°51' W 023°02'1 7.3
2017-Oct-27 09:59N 16°49' W 023°01'4 7.2
2017-Oct-27 09:29N 16°46' W 023°01'2 0.2
2017-Oct-26 22:08N 16°45' W 022°59'0 0.0
2017-Oct-26 20:37N 16°45' W 022°59'0 0.0
2017-Oct-26 20:28N 16°45' W 022°59'0 0.0
2017-Oct-26 16:01N 16°45' W 022°59'0 0.1
2017-Oct-26 15:55N 16°45' W 022°59'0 0.0
2017-Oct-26 15:25N 16°45' W 022°59'0 0.0
2017-Oct-26 14:58N 16°45' W 022°59'0 0.5
2017-Oct-26 14:03N 16°45' W 022°59'0 0.2
2017-Oct-26 13:41N 16°45' W 022°59'0 0.0
2017-Oct-26 13:02N 16°45' W 022°59'0 0.3
2017-Oct-26 12:59N 16°45' W 022°59'0 0.0
2017-Oct-26 12:29N 16°45' W 022°59'0 0.0
2017-Oct-26 08:47N 16°45' W 022°59'0 0.0
2017-Oct-26 06:50N 16°45' W 022°59'0 0.0
2017-Oct-26 06:29N 16°45' W 022°59'0 0.0
2017-Oct-26 05:59N 16°45' W 022°59'0 0.0
2017-Oct-26 01:11N 16°45' W 022°59'0 0.0
2017-Oct-26 00:59N 16°45' W 022°59'0 0.0
2017-Oct-26 00:29N 16°45' W 022°59'0 0.0
2017-Oct-25 23:59N 16°45' W 022°59'0 0.0
2017-Oct-25 23:29N 16°45' W 022°59'0 0.0
2017-Oct-25 22:58N 16°45' W 022°59'1 1.8
2017-Oct-25 22:29N 16°45' W 023°00'4 8.1
2017-Oct-25 22:00N 16°45' W 023°04'4 8.5
2017-Oct-25 21:30N 16°45' W 023°09'4 8.8
2017-Oct-25 20:59N 16°46' W 023°13'4 8.5
2017-Oct-25 20:29N 16°47' W 023°18'4 8.3
2017-Oct-25 20:00N 16°48' W 023°22'4 8.0
2017-Oct-25 19:30N 16°48' W 023°26'4 8.1
2017-Oct-25 18:59N 16°48' W 023°31'4 7.9
2017-Oct-25 18:30N 16°49' W 023°35'4 8.0
2017-Oct-25 18:00N 16°49' W 023°39'4 8.0
2017-Oct-25 17:29N 16°50' W 023°43'4 7.9
2017-Oct-25 16:59N 16°50' W 023°47'4 8.1
2017-Oct-25 16:29N 16°51' W 023°51'4 8.1
2017-Oct-25 15:58N 16°51' W 023°56'4 8.3
2017-Oct-25 15:30N 16°52' W 023°60'4 8.3
2017-Oct-25 15:00N 16°52' W 024°04'4 8.1
2017-Oct-25 14:30N 16°53' W 024°08'6 8.0
2017-Oct-25 13:45N 16°53' W 024°14'2 7.7
2017-Oct-25 13:30N 16°53' W 024°16'13 7.9
2017-Oct-25 11:54N 16°54' W 024°29'3 8.0
2017-Oct-25 11:29N 16°55' W 024°33'14 8.3
2017-Oct-25 09:51N 16°57' W 024°47'3 8.2
2017-Oct-25 09:29N 16°58' W 024°50'4 7.9
2017-Oct-25 09:00N 16°58' W 024°54'4 7.1
2017-Oct-25 08:29N 16°58' W 024°58'  

Dump ship's entire track history